createdAt,value
2023-01-02T00:01:43.048Z,100547.22
2023-01-02T00:04:10.995Z,100540.28
2023-01-02T00:06:39.932Z,100542.66
2023-01-02T00:09:08.661Z,100548.78
2023-01-02T00:11:36.603Z,100541.59
2023-01-02T00:14:04.519Z,100545.16
2023-01-02T00:16:32.324Z,100550.69
2023-01-02T00:19:00.215Z,100555.88
2023-01-02T00:21:28.062Z,100552.31
2023-01-02T00:23:57.071Z,100555.81
2023-01-02T00:26:27.817Z,100551.38
2023-01-02T00:28:55.523Z,100548.84
2023-01-02T00:31:23.458Z,100545.13
2023-01-02T00:33:51.435Z,100561.94
2023-01-02T00:36:19.310Z,100548.66
2023-01-02T00:38:47.091Z,100548.47
2023-01-02T00:41:15.036Z,100514.59
2023-01-02T00:43:43.609Z,100498.69
2023-01-02T00:46:12.372Z,100513.00
2023-01-02T00:48:40.904Z,100509.53
2023-01-02T00:51:09.151Z,100514.22
2023-01-02T00:53:37.499Z,100513.22
2023-01-02T00:56:05.936Z,100518.53
2023-01-02T00:58:33.959Z,100516.72
2023-01-02T01:01:01.810Z,100507.75
2023-01-02T01:03:32.964Z,100506.97
2023-01-02T01:06:08.374Z,100501.16
2023-01-02T01:08:38.069Z,100499.41
2023-01-02T01:11:17.405Z,100485.78
2023-01-02T01:13:46.209Z,100497.31
2023-01-02T01:16:17.429Z,100482.97
2023-01-02T01:18:46.366Z,100501.50
2023-01-02T01:21:19.022Z,100486.72
2023-01-02T01:23:55.522Z,100491.78
2023-01-02T01:26:24.072Z,100494.44
2023-01-02T01:28:54.995Z,100489.09
2023-01-02T01:31:24.143Z,100483.03
2023-01-02T01:33:55.233Z,100489.91
2023-01-02T01:36:25.190Z,100488.31
2023-01-02T01:38:53.030Z,100491.84
2023-01-02T01:41:24.075Z,100502.38
2023-01-02T01:43:58.752Z,100504.19
2023-01-02T01:46:46.660Z,100497.94
2023-01-02T01:49:28.918Z,100481.28
2023-01-02T01:52:09.331Z,100484.91
2023-01-02T01:54:46.259Z,100488.38
2023-01-02T01:57:27.453Z,100490.25
2023-01-02T01:59:57.920Z,100487.78
2023-01-02T02:02:28.245Z,100486.19
2023-01-02T02:04:59.873Z,100491.41
2023-01-02T02:07:28.105Z,100485.84
2023-01-02T02:10:06.131Z,100482.72
2023-01-02T02:12:35.041Z,100472.91
2023-01-02T02:15:03.530Z,100472.69
2023-01-02T02:18:41.136Z,100469.16
2023-01-02T02:21:37.854Z,100474.34
2023-01-02T02:25:07.517Z,100469.94
2023-01-02T02:28:16.341Z,100468.13
2023-01-02T02:31:08.587Z,100462.09
2023-01-02T02:34:35.773Z,100456.66
2023-01-02T02:37:27.995Z,100460.06
2023-01-02T02:40:32.438Z,100456.50
2023-01-02T02:43:58.884Z,100449.50
2023-01-02T02:46:54.723Z,100446.97
2023-01-02T02:49:58.561Z,100448.94
2023-01-02T02:52:46.364Z,100447.44
2023-01-02T02:55:29.047Z,100444.69
2023-01-02T02:57:58.438Z,100449.38
2023-01-02T03:00:26.831Z,100447.63
2023-01-02T03:02:54.547Z,100451.25
2023-01-02T03:05:45.598Z,100444.19
2023-01-02T03:08:39.473Z,100447.91
2023-01-02T03:11:07.350Z,100433.91
2023-01-02T03:13:42.287Z,100436.28
2023-01-02T03:16:33.606Z,100430.88
2023-01-02T03:19:20.281Z,100441.63
2023-01-02T03:22:07.591Z,100441.63
2023-01-02T03:24:36.690Z,100455.06
2023-01-02T03:27:15.183Z,100437.16
2023-01-02T03:30:13.599Z,100437.16
2023-01-02T03:33:00.914Z,100444.31
2023-01-02T03:35:35.560Z,100431.81
2023-01-02T03:38:08.360Z,100431.88
2023-01-02T03:40:44.062Z,100429.97
2023-01-02T03:43:23.711Z,100445.69
2023-01-02T03:46:06.727Z,100447.50
2023-01-02T03:48:59.882Z,100441.72
2023-01-02T03:51:27.818Z,100441.06
2023-01-02T03:53:56.093Z,100446.47
2023-01-02T03:57:10.465Z,100449.19
2023-01-02T04:00:07.630Z,100450.22
2023-01-02T04:03:09.232Z,100440.59
2023-01-02T04:05:59.631Z,100460.72
2023-01-02T04:08:39.033Z,100459.00
2023-01-02T04:11:08.835Z,100468.94
2023-01-02T04:13:45.090Z,100464.44
2023-01-02T04:16:20.988Z,100458.25
2023-01-02T04:19:02.288Z,100444.91
2023-01-02T04:21:34.344Z,100451.06
2023-01-02T04:24:16.726Z,100456.22
2023-01-02T04:27:18.518Z,100455.34
2023-01-02T04:29:46.365Z,100452.88
2023-01-02T04:32:24.581Z,100454.41
2023-01-02T04:34:54.155Z,100453.88
2023-01-02T04:37:40.758Z,100451.94
2023-01-02T04:40:24.589Z,100437.84
2023-01-02T04:42:53.017Z,100452.06
2023-01-02T04:45:20.946Z,100437.19
2023-01-02T04:47:49.763Z,100444.25
2023-01-02T04:50:17.684Z,100450.41
2023-01-02T04:52:45.541Z,100438.03
2023-01-02T04:55:13.276Z,100439.78
2023-01-02T04:57:40.958Z,100434.59
2023-01-02T05:00:09.780Z,100442.44
2023-01-02T05:02:39.443Z,100429.09
2023-01-02T05:05:09.036Z,100436.03
2023-01-02T05:07:38.127Z,100436.03
2023-01-02T05:10:08.392Z,100450.06
2023-01-02T05:12:37.901Z,100438.25
2023-01-02T05:15:09.091Z,100449.75
2023-01-02T05:17:41.887Z,100455.31
2023-01-02T05:20:13.299Z,100461.81
2023-01-02T05:23:01.818Z,100461.13
2023-01-02T05:25:35.030Z,100466.56
2023-01-02T05:28:03.962Z,100464.88
2023-01-02T05:30:31.714Z,100465.81
2023-01-02T05:32:59.588Z,100464.75
2023-01-02T05:35:47.197Z,100468.34
2023-01-02T05:38:35.646Z,100476.38
2023-01-02T05:41:05.569Z,100473.03
2023-01-02T05:43:36.323Z,100477.50
2023-01-02T05:46:12.801Z,100478.44
2023-01-02T05:48:41.245Z,100485.50
2023-01-02T05:51:12.643Z,100488.22
2023-01-02T05:53:41.026Z,100496.63
2023-01-02T05:56:18.783Z,100496.56
2023-01-02T05:58:49.992Z,100502.16
2023-01-02T06:01:20.138Z,100496.06
2023-01-02T06:03:54.800Z,100509.03
2023-01-02T06:06:33.809Z,100509.22
2023-01-02T06:09:03.217Z,100510.50
2023-01-02T06:11:31.508Z,100507.13
2023-01-02T06:13:59.393Z,100510.78
2023-01-02T06:16:27.506Z,100514.38
2023-01-02T06:18:55.870Z,100519.97
2023-01-02T06:21:24.455Z,100530.81
2023-01-02T06:23:57.430Z,100530.09
2023-01-02T06:26:34.199Z,100530.19
2023-01-02T06:29:04.293Z,100542.59
2023-01-02T06:31:33.638Z,100536.31
2023-01-02T06:34:03.519Z,100544.38
2023-01-02T06:36:34.410Z,100540.00
2023-01-02T06:39:02.631Z,100529.44
2023-01-02T06:41:30.980Z,100535.44
2023-01-02T06:43:58.998Z,100542.47
2023-01-02T06:46:26.721Z,100545.22
2023-01-02T06:48:54.457Z,100546.94
2023-01-02T06:51:23.827Z,100540.00
2023-01-02T06:53:51.751Z,100545.22
2023-01-02T06:56:21.077Z,100546.19
2023-01-02T06:58:49.195Z,100559.44
2023-01-02T07:01:21.902Z,100567.09
2023-01-02T07:03:49.873Z,100572.63
2023-01-02T07:06:21.083Z,100562.81
2023-01-02T07:08:49.527Z,100564.75
2023-01-02T07:11:23.843Z,100576.09
2023-01-02T07:13:54.390Z,100577.06
2023-01-02T07:16:24.081Z,100567.44
2023-01-02T07:18:53.697Z,100569.22
2023-01-02T07:21:22.091Z,100580.59
2023-01-02T07:23:49.928Z,100570.00
2023-01-02T07:26:17.883Z,100579.50
2023-01-02T07:28:47.026Z,100573.31
2023-01-02T07:31:18.459Z,100586.59
2023-01-02T07:33:46.706Z,100581.38
2023-01-02T07:36:18.196Z,100580.44
2023-01-02T07:38:53.622Z,100584.84
2023-01-02T07:41:26.240Z,100587.25
2023-01-02T07:43:58.152Z,100588.94
2023-01-02T07:46:26.051Z,100591.41
2023-01-02T07:48:53.775Z,100588.81
2023-01-02T07:51:26.978Z,100595.84
2023-01-02T07:53:56.900Z,100602.06
2023-01-02T07:56:26.340Z,100588.06
2023-01-02T07:58:54.395Z,100600.41
2023-01-02T08:01:22.558Z,100604.75
2023-01-02T08:03:50.910Z,100616.25
2023-01-02T08:06:19.900Z,100610.06
2023-01-02T08:08:49.333Z,100613.69
2023-01-02T08:11:20.964Z,100608.53
2023-01-02T08:13:49.943Z,100617.66
2023-01-02T08:16:20.942Z,100626.47
2023-01-02T08:18:52.468Z,100620.34
2023-01-02T08:21:20.264Z,100627.03
2023-01-02T08:23:48.041Z,100631.06
2023-01-02T08:26:16.345Z,100630.03
2023-01-02T08:28:44.670Z,100637.69
2023-01-02T08:31:20.353Z,100644.91
2023-01-02T08:33:49.455Z,100652.22
2023-01-02T08:36:19.410Z,100656.81
2023-01-02T08:38:47.796Z,100652.56
2023-01-02T08:41:15.699Z,100665.09
2023-01-02T08:43:43.515Z,100670.41
2023-01-02T08:46:11.443Z,100667.72
2023-01-02T08:48:39.189Z,100674.47
2023-01-02T08:51:07.053Z,100677.72
2023-01-02T08:53:35.050Z,100680.88
2023-01-02T08:56:22.087Z,100678.59
2023-01-02T08:58:59.890Z,100682.78
2023-01-02T09:01:29.505Z,100686.00
2023-01-02T09:03:57.830Z,100687.44
2023-01-02T09:06:28.576Z,100680.13
2023-01-02T09:08:58.628Z,100690.28
2023-01-02T09:11:31.028Z,100693.38
2023-01-02T09:14:00.938Z,100701.09
2023-01-02T09:16:29.667Z,100706.09
2023-01-02T09:19:00.245Z,100695.03
2023-01-02T09:21:29.904Z,100706.44
2023-01-02T09:23:58.135Z,100700.03
2023-01-02T09:26:26.689Z,100721.16
2023-01-02T09:28:54.521Z,100715.75
2023-01-02T09:31:22.629Z,100724.31
2023-01-02T09:33:50.729Z,100714.38
2023-01-02T09:36:20.100Z,100731.78
2023-01-02T09:38:59.769Z,100736.91
2023-01-02T09:41:46.214Z,100729.56
2023-01-02T09:44:43.543Z,100729.31
2023-01-02T09:47:11.364Z,100744.38
2023-01-02T09:49:50.458Z,100729.19
2023-01-02T09:52:38.129Z,100742.00
2023-01-02T09:55:24.391Z,100738.47
2023-01-02T09:58:25.501Z,100725.69
2023-01-02T10:00:53.269Z,100745.31
2023-01-02T10:03:56.310Z,100741.34
2023-01-02T10:06:31.668Z,100753.72
2023-01-02T10:09:21.967Z,100755.19
2023-01-02T10:12:13.272Z,100754.19
2023-01-02T10:14:58.077Z,100747.81
2023-01-02T10:17:29.692Z,100757.59
2023-01-02T10:20:28.315Z,100755.50
2023-01-02T10:23:23.771Z,100745.50
2023-01-02T10:25:58.836Z,100756.00
2023-01-02T10:28:57.659Z,100755.72
2023-01-02T10:31:36.400Z,100759.25
2023-01-02T10:34:08.861Z,100773.25
2023-01-02T10:36:42.136Z,100764.06
2023-01-02T10:39:18.312Z,100760.25
2023-01-02T10:41:50.359Z,100760.31
2023-01-02T10:44:33.541Z,100769.72
2023-01-02T10:47:36.468Z,100755.47
2023-01-02T10:50:08.545Z,100758.06
2023-01-02T10:52:51.672Z,100756.94
2023-01-02T10:55:42.420Z,100751.56
2023-01-02T10:58:29.009Z,100760.25
2023-01-02T11:01:23.644Z,100752.22
2023-01-02T11:03:54.545Z,100763.38
2023-01-02T11:06:38.990Z,100765.03
2023-01-02T11:09:25.203Z,100758.44
2023-01-02T11:11:56.562Z,100768.13
2023-01-02T11:14:30.949Z,100772.31
2023-01-02T11:17:10.475Z,100762.47
2023-01-02T11:19:51.105Z,100764.88
2023-01-02T11:22:22.137Z,100770.94
2023-01-02T11:25:04.758Z,100762.47
2023-01-02T11:27:37.100Z,100765.75
2023-01-02T11:30:08.122Z,100757.97
2023-01-02T11:32:41.310Z,100766.56
2023-01-02T11:35:48.715Z,100746.63
2023-01-02T11:38:42.297Z,100754.13
2023-01-02T11:42:06.819Z,100746.63
2023-01-02T11:44:50.355Z,100760.75
2023-01-02T11:47:32.814Z,100751.38
2023-01-02T11:50:02.263Z,100755.47
2023-01-02T11:52:51.382Z,100756.72
2023-01-02T11:55:50.222Z,100756.34
2023-01-02T11:58:59.219Z,100752.28
2023-01-02T12:01:38.119Z,100756.47
2023-01-02T12:04:06.602Z,100754.25
2023-01-02T12:06:40.305Z,100745.63
2023-01-02T12:09:42.411Z,100749.63
2023-01-02T12:12:38.281Z,100750.34
2023-01-02T12:15:28.521Z,100755.63
2023-01-02T12:18:23.992Z,100774.88
2023-01-02T12:21:10.401Z,100764.84
2023-01-02T12:24:17.983Z,100769.88
2023-01-02T12:27:01.308Z,100772.47
2023-01-02T12:29:50.261Z,100773.34
2023-01-02T12:32:57.746Z,100774.03
2023-01-02T12:35:53.779Z,100793.81
2023-01-02T12:39:15.748Z,100788.44
2023-01-02T12:42:08.439Z,100785.50
2023-01-02T12:44:54.295Z,100772.94
2023-01-02T12:47:58.746Z,100772.84
2023-01-02T12:50:50.465Z,100784.44
2023-01-02T12:53:27.207Z,100779.41
2023-01-02T12:57:00.680Z,100783.31
2023-01-02T12:59:42.609Z,100767.28
2023-01-02T13:02:40.332Z,100791.28
2023-01-02T13:05:23.292Z,100793.00
2023-01-02T13:08:15.236Z,100785.91
2023-01-02T13:10:44.317Z,100787.03
2023-01-02T13:13:14.646Z,100780.00
2023-01-02T13:15:48.998Z,100789.72
2023-01-02T13:18:31.886Z,100791.53
2023-01-02T13:21:41.575Z,100794.47
2023-01-02T13:24:16.495Z,100791.16
2023-01-02T13:26:44.506Z,100803.91
2023-01-02T13:29:12.331Z,100817.25
2023-01-02T13:31:48.418Z,100810.16
2023-01-02T13:34:28.766Z,100807.63
2023-01-02T13:37:10.484Z,100810.47
2023-01-02T13:39:50.067Z,100808.97
2023-01-02T13:42:56.553Z,100818.75
2023-01-02T13:45:34.874Z,100820.81
2023-01-02T13:48:26.255Z,100822.66
2023-01-02T13:51:13.539Z,100815.69
2023-01-02T13:53:51.621Z,100817.59
2023-01-02T13:56:26.169Z,100810.66
2023-01-02T13:59:42.718Z,100824.88
2023-01-02T14:02:21.193Z,100828.59
2023-01-02T14:04:49.415Z,100829.69
2023-01-02T14:07:26.186Z,100846.38
2023-01-02T14:10:27.287Z,100838.38
2023-01-02T14:13:04.978Z,100843.97
2023-01-02T14:15:55.375Z,100844.16
2023-01-02T14:18:30.878Z,100842.63
2023-01-02T14:20:59.261Z,100860.56
2023-01-02T14:24:17.963Z,100857.94
2023-01-02T14:26:39.582Z,100867.97
2023-01-02T14:29:17.331Z,100861.16
2023-01-02T14:31:47.662Z,100868.59
2023-01-02T14:34:24.860Z,100886.38
2023-01-02T14:36:56.662Z,100883.06
2023-01-02T14:39:36.997Z,100881.38
2023-01-02T14:42:50.073Z,100886.81
2023-01-02T14:45:23.812Z,100873.94
2023-01-02T14:47:59.876Z,100882.88
2023-01-02T14:50:32.938Z,100875.09
2023-01-02T14:53:26.977Z,100880.41
2023-01-02T14:56:04.465Z,100879.03
2023-01-02T14:58:40.845Z,100896.78
2023-01-02T15:01:11.574Z,100894.31
2023-01-02T15:04:40.065Z,100885.63
2023-01-02T15:07:35.648Z,100879.78
2023-01-02T15:10:21.282Z,100879.78
2023-01-02T15:13:09.493Z,100888.19
2023-01-02T15:15:43.632Z,100889.94
2023-01-02T15:18:30.938Z,100882.69
2023-01-02T15:21:13.625Z,100889.06
2023-01-02T15:23:47.677Z,100893.63
2023-01-02T15:26:34.915Z,100885.59
2023-01-02T15:29:18.525Z,100890.97
2023-01-02T15:32:24.510Z,100903.59
2023-01-02T15:34:53.186Z,100901.91
2023-01-02T15:37:22.896Z,100924.13
2023-01-02T15:39:53.428Z,100921.63
2023-01-02T15:42:45.222Z,100926.13
2023-01-02T15:45:16.037Z,100942.22
2023-01-02T15:47:50.382Z,100957.09
2023-01-02T15:50:26.349Z,100969.44
2023-01-02T15:53:17.275Z,100982.84
2023-01-02T15:55:45.157Z,100990.41
2023-01-02T15:58:31.221Z,101003.66
2023-01-02T16:01:11.659Z,100997.03
2023-01-02T16:04:01.141Z,101003.69
2023-01-02T16:06:45.130Z,101015.50
2023-01-02T16:09:26.351Z,101010.34
2023-01-02T16:11:58.694Z,101010.53
2023-01-02T16:14:37.394Z,101015.94
2023-01-02T16:17:17.920Z,101017.81
2023-01-02T16:20:14.023Z,101023.25
2023-01-02T16:23:05.773Z,101030.56
2023-01-02T16:25:45.016Z,101025.28
2023-01-02T16:28:35.915Z,101042.22
2023-01-02T16:31:15.521Z,101044.03
2023-01-02T16:33:45.879Z,101055.84
2023-01-02T16:36:24.636Z,101072.88
2023-01-02T16:39:01.487Z,101075.13
2023-01-02T16:41:37.027Z,101089.31
2023-01-02T16:44:14.383Z,101087.50
2023-01-02T16:46:51.018Z,101088.44
2023-01-02T16:49:21.924Z,101093.81
2023-01-02T16:51:53.931Z,101099.97
2023-01-02T16:54:21.904Z,101096.47
2023-01-02T16:56:50.470Z,101088.25
2023-01-02T16:59:18.166Z,101092.56
2023-01-02T17:01:46.115Z,101091.56
2023-01-02T17:04:15.080Z,101095.25
2023-01-02T17:06:42.869Z,101106.56
2023-01-02T17:09:10.604Z,101111.00
2023-01-02T17:11:59.098Z,101115.47
2023-01-02T17:14:30.034Z,101121.75
2023-01-02T17:16:59.373Z,101141.53
2023-01-02T17:19:28.874Z,101139.78
2023-01-02T17:21:56.807Z,101138.97
2023-01-02T17:24:24.843Z,101145.38
2023-01-02T17:26:52.672Z,101167.81
2023-01-02T17:29:20.603Z,101172.66
2023-01-02T17:31:48.527Z,101188.84
2023-01-02T17:34:16.369Z,101190.22
2023-01-02T17:36:44.446Z,101197.56
2023-01-02T17:39:12.704Z,101193.44
2023-01-02T17:41:41.190Z,101203.50
2023-01-02T17:44:09.417Z,101215.28
2023-01-02T17:49:25.463Z,101215.81
2023-01-02T17:51:53.610Z,101228.28
2023-01-02T17:54:21.612Z,101239.88
2023-01-02T17:56:49.776Z,101249.72
2023-01-02T17:59:19.556Z,101253.28
2023-01-02T18:01:48.213Z,101253.34
2023-01-02T18:04:17.256Z,101270.88
2023-01-02T18:06:44.988Z,101260.97
2023-01-02T18:09:13.421Z,101276.06
2023-01-02T18:11:41.189Z,101279.59
2023-01-02T18:14:24.604Z,101275.13
2023-01-02T18:16:57.282Z,101274.31
2023-01-02T18:19:30.060Z,101268.03
2023-01-02T18:21:58.430Z,101274.19
2023-01-02T18:24:31.360Z,101264.41
2023-01-02T18:27:34.205Z,101286.59
2023-01-02T18:30:16.893Z,101289.28
2023-01-02T18:32:46.615Z,101291.97
2023-01-02T18:35:56.039Z,101298.28
2023-01-02T18:38:31.490Z,101302.66
2023-01-02T18:40:59.787Z,101300.84
2023-01-02T18:43:35.613Z,101305.38
2023-01-02T18:47:01.928Z,101318.72
2023-01-02T18:49:26.497Z,101326.03
2023-01-02T18:52:29.277Z,101337.69
2023-01-02T18:55:24.976Z,101351.06
2023-01-02T18:58:57.824Z,101360.06
2023-01-02T19:01:27.695Z,101347.50
2023-01-02T19:04:22.442Z,101349.13
2023-01-02T19:07:00.453Z,101346.47
2023-01-02T19:09:34.608Z,101353.63
2023-01-02T19:12:32.974Z,101357.16
2023-01-02T19:15:22.795Z,101352.91
2023-01-02T19:17:50.663Z,101364.63
2023-01-02T19:20:26.660Z,101361.88
2023-01-02T19:22:54.820Z,101357.63
2023-01-02T19:25:26.319Z,101363.91
2023-01-02T19:27:56.574Z,101374.63
2023-01-02T19:30:30.482Z,101376.44
2023-01-02T19:32:59.092Z,101382.06
2023-01-02T19:35:52.784Z,101378.38
2023-01-02T19:38:30.061Z,101382.97
2023-01-02T19:41:01.086Z,101387.59
2023-01-02T19:43:29.418Z,101393.06
2023-01-02T19:45:58.122Z,101387.00
2023-01-02T19:48:26.180Z,101402.03
2023-01-02T19:50:54.742Z,101392.34
2023-01-02T19:53:22.945Z,101397.78
2023-01-02T19:55:51.322Z,101397.00
2023-01-02T19:58:19.852Z,101390.75
2023-01-02T20:00:48.588Z,101405.88
2023-01-02T20:03:16.807Z,101405.88
2023-01-02T20:05:45.539Z,101413.84
2023-01-02T20:08:13.687Z,101405.03
2023-01-02T20:10:41.807Z,101406.78
2023-01-02T20:13:10.100Z,101415.63
2023-01-02T20:15:39.642Z,101420.16
2023-01-02T20:18:09.064Z,101422.72
2023-01-02T20:20:37.622Z,101419.25
2023-01-02T20:23:05.938Z,101419.19
2023-01-02T20:25:34.000Z,101418.31
2023-01-02T20:28:04.377Z,101421.03
2023-01-02T20:30:32.692Z,101417.31
2023-01-02T20:33:01.594Z,101433.28
2023-01-02T20:35:29.755Z,101428.94
2023-01-02T20:37:58.100Z,101448.47
2023-01-02T20:40:28.055Z,101451.13
2023-01-02T20:42:56.234Z,101457.34
2023-01-02T20:45:24.712Z,101456.44
2023-01-02T20:47:53.928Z,101458.19
2023-01-02T20:50:23.009Z,101472.47
2023-01-02T20:52:56.632Z,101470.72
2023-01-02T20:55:25.735Z,101476.22
2023-01-02T20:57:54.418Z,101471.66
2023-01-02T21:00:22.628Z,101476.09
2023-01-02T21:02:52.110Z,101483.31
2023-01-02T21:05:21.881Z,101477.22
2023-01-02T21:07:50.874Z,101483.44
2023-01-02T21:10:19.033Z,101488.88
2023-01-02T21:13:06.310Z,101488.94
2023-01-02T21:15:52.873Z,101496.94
2023-01-02T21:18:27.595Z,101497.09
2023-01-02T21:20:58.525Z,101495.50
2023-01-02T21:23:29.301Z,101496.69
2023-01-02T21:25:57.983Z,101509.22
2023-01-02T21:28:26.260Z,101515.53
2023-01-02T21:30:54.887Z,101521.88
2023-01-02T21:33:26.607Z,101521.97
2023-01-02T21:36:00.717Z,101529.97
2023-01-02T21:38:29.631Z,101527.44
2023-01-02T21:41:17.267Z,101524.91
2023-01-02T21:43:46.480Z,101532.09
2023-01-02T21:46:14.936Z,101530.41
2023-01-02T21:48:43.181Z,101527.84
2023-01-02T21:51:12.187Z,101528.72
2023-01-02T21:53:40.910Z,101523.50
2023-01-02T21:56:09.528Z,101508.56
2023-01-02T21:58:38.627Z,101520.22
2023-01-02T22:01:06.984Z,101522.88
2023-01-02T22:03:35.684Z,101531.00
2023-01-02T22:06:04.654Z,101517.84
2023-01-02T22:08:32.774Z,101531.13
2023-01-02T22:11:21.036Z,101533.00
2023-01-02T22:13:49.129Z,101548.31
2023-01-02T22:16:17.075Z,101552.75
2023-01-02T22:18:44.993Z,101559.84
2023-01-02T22:21:13.189Z,101564.31
2023-01-02T22:23:41.154Z,101565.16
2023-01-02T22:26:08.911Z,101562.56
2023-01-02T22:28:37.679Z,101563.44
2023-01-02T22:31:07.121Z,101581.19
2023-01-02T22:33:35.044Z,101579.47
2023-01-02T22:36:03.486Z,101583.06
2023-01-02T22:38:31.445Z,101572.47
2023-01-02T22:41:00.295Z,101588.47
2023-01-02T22:43:36.978Z,101582.25
2023-01-02T22:46:09.629Z,101595.72
2023-01-02T22:48:42.381Z,101578.88
2023-01-02T22:51:15.082Z,101558.44
2023-01-02T22:53:42.822Z,101569.22
2023-01-02T22:56:22.876Z,101560.28
2023-01-02T22:58:51.692Z,101572.91
2023-01-02T23:01:25.374Z,101566.53
2023-01-02T23:03:53.838Z,101571.06
2023-01-02T23:06:22.723Z,101579.03
2023-01-02T23:08:52.369Z,101580.94
2023-01-02T23:11:21.781Z,101591.63
2023-01-02T23:13:54.718Z,101586.38
2023-01-02T23:16:43.279Z,101583.84
2023-01-02T23:19:14.356Z,101583.84
2023-01-02T23:21:58.104Z,101583.94
2023-01-02T23:24:34.194Z,101598.22
2023-01-02T23:27:11.019Z,101596.47
2023-01-02T23:29:40.080Z,101600.19
2023-01-02T23:32:10.540Z,101586.94
2023-01-02T23:34:41.079Z,101579.97
2023-01-02T23:37:09.090Z,101580.09
2023-01-02T23:39:37.541Z,101577.47
2023-01-02T23:42:05.891Z,101586.44
2023-01-02T23:44:33.863Z,101581.25
2023-01-02T23:47:08.592Z,101586.69
2023-01-02T23:49:38.081Z,101583.22
2023-01-02T23:52:06.188Z,101584.19
2023-01-02T23:54:33.878Z,101580.78
2023-01-02T23:57:01.902Z,101587.97
2023-01-02T23:59:29.557Z,101590.75
